Time;durP1;ratioP1;P1;durP2;ratioP2;P2;SDS_P1;SDS_P2;PMS_P1;PMS_P2;Temp;Humidity;BMP_temperature;BMP_pressure;BME280_temperature;BME280_humidity;BME280_pressure;Samples;Min_cycle;Max_cycle;Signal;HPM_P1;HPM_P2
2022/10/11 00:01:41;;;;;;;0.68;0.68;;;8.30;99.90;;;;;;5053025;28;20425;-70
2022/10/11 00:04:06;;;;;;;0.40;0.40;;;;;;;;;;5052332;28;20112;-72
2022/10/11 00:06:32;;;;;;;0.40;0.40;;;8.10;99.90;;;;;;5052753;28;20067;-71
2022/10/11 00:08:58;;;;;;;0.40;0.40;;;8.50;99.90;;;;;;5052586;28;20028;-71
2022/10/11 00:11:24;;;;;;;0.30;0.30;;;;;;;;;;5053033;28;20027;-72
2022/10/11 00:13:49;;;;;;;0.40;0.40;;;8.50;99.90;;;;;;5052963;28;20021;-73
2022/10/11 00:16:15;;;;;;;0.67;0.50;;;;;;;;;;5052896;28;20274;-72
2022/10/11 00:18:42;;;;;;;0.50;0.50;;;;;;;;;;5052680;28;20199;-72
2022/10/11 00:21:11;;;;;;;0.40;0.40;;;8.00;99.90;;;;;;5051507;28;20106;-72
2022/10/11 00:23:37;;;;;;;0.57;0.57;;;8.00;99.90;;;;;;5052307;28;20036;-72
2022/10/11 00:26:06;;;;;;;0.40;0.40;;;7.50;99.90;;;;;;5050946;28;20029;-72
2022/10/11 00:28:32;;;;;;;0.30;0.30;;;7.80;99.90;;;;;;5014432;28;20121;-73
2022/10/11 00:30:58;;;;;;;0.30;0.30;;;7.90;99.90;;;;;;5012628;28;20122;-73
2022/10/11 00:33:24;;;;;;;0.47;0.47;;;;;;;;;;5012350;28;20362;-73
2022/10/11 00:35:50;;;;;;;0.43;0.43;;;;;;;;;;5012496;28;20037;-73
2022/10/11 00:38:16;;;;;;;0.40;0.40;;;7.60;99.90;;;;;;5022122;28;20496;-72
2022/10/11 00:40:42;;;;;;;0.40;0.40;;;7.90;99.90;;;;;;5032048;28;20052;-73
2022/10/11 00:43:16;;;;;;;0.40;0.40;;;8.40;99.90;;;;;;5030701;28;20025;-72
2022/10/11 00:45:51;;;;;;;0.40;0.40;;;8.30;99.90;;;;;;5030518;28;20551;-72
2022/10/11 00:48:22;;;;;;;0.30;0.30;;;7.90;99.90;;;;;;5030629;28;20033;-72
2022/10/11 00:50:48;;;;;;;0.40;0.40;;;7.80;99.90;;;;;;5031850;28;20480;-72
2022/10/11 00:53:14;;;;;;;0.40;0.40;;;7.80;99.90;;;;;;5030497;28;20128;-72
2022/10/11 00:55:49;;;;;;;0.50;0.50;;;7.80;99.90;;;;;;5041594;28;20111;-72
2022/10/11 00:58:17;;;;;;;0.40;0.40;;;7.80;99.90;;;;;;5035166;28;20036;-71
2022/10/11 01:00:43;;;;;;;0.65;0.65;;;7.70;99.90;;;;;;5031976;28;20380;-72
2022/10/11 01:03:09;;;;;;;0.40;0.40;;;7.70;99.90;;;;;;5030435;28;20495;-71
2022/10/11 01:05:37;;;;;;;0.57;0.57;;;7.70;99.90;;;;;;5031735;28;20298;-72
2022/10/11 01:08:05;;;;;;;0.40;0.40;;;9.40;99.90;;;;;;5030162;28;20272;-72
2022/10/11 01:10:31;;;;;;;0.40;0.40;;;7.70;99.90;;;;;;5031758;28;20036;-72
2022/10/11 01:13:24;;;;;;;0.50;0.50;;;7.70;99.90;;;;;;5047553;28;20033;-72
2022/10/11 01:15:53;;;;;;;0.30;0.30;;;7.70;99.90;;;;;;5051447;28;20039;-73
2022/10/11 01:18:34;;;;;;;1.20;1.10;;;7.70;99.90;;;;;;5049684;28;20542;-72
2022/10/11 01:21:24;;;;;;;0.30;0.30;;;7.70;99.90;;;;;;5051073;28;20112;-73
2022/10/11 01:24:09;;;;;;;0.30;0.30;;;7.70;99.90;;;;;;5049605;28;20048;-72
2022/10/11 01:26:45;;;;;;;0.50;0.50;;;7.70;99.90;;;;;;5045607;28;20053;-71
2022/10/11 01:29:40;;;;;;;0.35;0.35;;;7.70;99.90;;;;;;5022492;28;20013;-71
2022/10/11 01:32:17;;;;;;;0.30;0.30;;;7.70;99.90;;;;;;5029805;28;20034;-71
2022/10/11 01:35:00;;;;;;;0.40;0.40;;;7.60;99.90;;;;;;5030931;28;20116;-72
2022/10/11 01:37:33;;;;;;;0.30;0.30;;;7.60;99.90;;;;;;5029818;28;20030;-72
2022/10/11 01:40:06;;;;;;;0.40;0.40;;;7.60;99.90;;;;;;5029462;28;20045;-73
2022/10/11 01:42:34;;;;;;;0.40;0.40;;;7.60;99.90;;;;;;5030703;28;20084;-72
2022/10/11 01:44:59;;;;;;;0.70;0.70;;;7.60;99.90;;;;;;5029354;28;20133;-70
2022/10/11 01:47:25;;;;;;;1.37;1.27;;;7.60;99.90;;;;;;5029441;28;20060;-71
2022/10/11 01:50:01;;;;;;;0.40;0.40;;;7.50;99.90;;;;;;5029945;28;20030;-72
2022/10/11 01:52:30;;;;;;;0.30;0.30;;;7.50;99.90;;;;;;5030972;28;20034;-72
2022/10/11 01:55:37;;;;;;;0.30;0.30;;;7.50;99.90;;;;;;5030885;28;20034;-72
2022/10/11 01:58:30;;;;;;;0.30;0.30;;;7.50;99.90;;;;;;5030542;28;20029;-72
2022/10/11 02:01:12;;;;;;;0.40;0.40;;;7.50;99.90;;;;;;5029436;28;20368;-72
2022/10/11 02:03:47;;;;;;;0.40;0.40;;;7.40;99.90;;;;;;5031277;28;20048;-72
2022/10/11 02:06:27;;;;;;;0.93;0.93;;;7.40;99.90;;;;;;5031431;28;20021;-72
2022/10/11 02:09:08;;;;;;;0.30;0.30;;;6.80;99.90;;;;;;5029190;28;20033;-71
2022/10/11 02:11:35;;;;;;;0.50;0.50;;;7.30;99.90;;;;;;5050723;28;20095;-72
2022/10/11 02:14:14;;;;;;;0.40;0.40;;;7.30;99.90;;;;;;5050266;28;20440;-72
2022/10/11 02:16:45;;;;;;;0.30;0.30;;;7.20;99.90;;;;;;5050154;28;20052;-72
2022/10/11 02:19:14;;;;;;;0.60;0.60;;;7.20;99.90;;;;;;5046810;28;20068;-72
2022/10/11 02:21:43;;;;;;;0.40;0.40;;;7.10;99.90;;;;;;5029041;28;20107;-72
2022/10/11 02:24:15;;;;;;;0.40;0.40;;;7.10;99.90;;;;;;5028886;28;20373;-73
2022/10/11 02:26:44;;;;;;;0.45;0.45;;;7.10;99.90;;;;;;5030387;28;20041;-71
2022/10/11 02:29:12;;;;;;;0.47;0.47;;;7.10;99.90;;;;;;5030202;28;20025;-71
2022/10/11 02:31:40;;;;;;;0.40;0.40;;;7.00;99.90;;;;;;5030497;28;20054;-72
2022/10/11 02:34:17;;;;;;;0.77;0.77;;;7.00;99.90;;;;;;5028610;28;20014;-71
2022/10/11 02:37:07;;;;;;;0.45;0.45;;;6.90;99.90;;;;;;5030877;28;20436;-72
2022/10/11 02:39:41;;;;;;;0.30;0.30;;;6.90;99.90;;;;;;5028480;28;20492;-72
2022/10/11 02:42:13;;;;;;;0.40;0.40;;;7.20;99.90;;;;;;5029811;28;20108;-72
2022/10/11 02:44:49;;;;;;;0.80;0.80;;;6.70;99.90;;;;;;5029613;28;20095;-71
2022/10/11 02:47:15;;;;;;;0.63;0.63;;;6.70;99.90;;;;;;5030165;28;20330;-72
2022/10/11 02:49:41;;;;;;;0.40;0.40;;;6.90;99.90;;;;;;5028607;28;20576;-72
2022/10/11 02:52:07;;;;;;;0.40;0.40;;;;;;;;;;5028649;28;20033;-72
2022/10/11 02:54:33;;;;;;;0.87;0.87;;;;;;;;;;5030678;28;20017;-72
2022/10/11 02:56:59;;;;;;;0.50;0.50;;;;;;;;;;5030173;28;20259;-74
2022/10/11 02:59:25;;;;;;;0.43;0.43;;;6.50;99.90;;;;;;5030027;28;20250;-72
2022/10/11 03:01:51;;;;;;;0.40;0.40;;;;;;;;;;5032618;28;20274;-72
2022/10/11 03:04:17;;;;;;;0.40;0.40;;;;;;;;;;5034209;28;20103;-72
2022/10/11 03:06:42;;;;;;;0.40;0.40;;;6.20;99.90;;;;;;5032545;28;20037;-72
2022/10/11 03:09:08;;;;;;;0.50;0.50;;;6.60;99.90;;;;;;5032493;28;20741;-72
2022/10/11 03:11:34;;;;;;;0.50;0.50;;;;;;;;;;5034231;28;20469;-72
2022/10/11 03:13:59;;;;;;;0.40;0.40;;;6.70;99.90;;;;;;5032273;28;20412;-73
2022/10/11 03:16:25;;;;;;;10.03;2.40;;;;;;;;;;5034727;28;20301;-72
2022/10/11 03:18:51;;;;;;;0.70;0.70;;;;;;;;;;5044630;28;20037;-71
2022/10/11 03:21:17;;;;;;;1.33;1.00;;;;;;;;;;5033743;28;20099;-71
2022/10/11 03:23:43;;;;;;;0.50;0.50;;;;;;;;;;5032099;28;20396;-71
2022/10/11 03:26:09;;;;;;;1.33;1.30;;;;;;;;;;5033594;28;20037;-72
2022/10/11 03:28:35;;;;;;;0.40;0.40;;;6.90;99.90;;;;;;5028396;28;20025;-72
2022/10/11 03:31:01;;;;;;;0.40;0.40;;;;;;;;;;5032055;28;20424;-72
2022/10/11 03:33:27;;;;;;;0.40;0.40;;;;;;;;;;5033234;28;20029;-72
2022/10/11 03:35:52;;;;;;;0.63;0.63;;;6.50;99.90;;;;;;5031889;28;20436;-72
2022/10/11 03:38:20;;;;;;;1.27;1.03;;;6.40;99.90;;;;;;5033135;28;20063;-72
2022/10/11 03:40:46;;;;;;;3.63;1.33;;;6.40;99.90;;;;;;5033388;28;20033;-72
2022/10/11 03:43:12;;;;;;;0.63;0.63;;;6.50;99.90;;;;;;5033234;28;20499;-72
2022/10/11 03:45:38;;;;;;;1.10;1.10;;;6.30;99.90;;;;;;5032165;28;20045;-72
2022/10/11 03:48:04;;;;;;;0.50;0.50;;;6.20;99.90;;;;;;5033216;28;20013;-72
2022/10/11 03:50:30;;;;;;;0.50;0.50;;;6.20;99.90;;;;;;5031787;28;20388;-72
2022/10/11 03:52:55;;;;;;;0.40;0.40;;;6.30;99.90;;;;;;5031639;28;20294;-72
2022/10/11 03:55:21;;;;;;;0.93;0.93;;;6.20;99.90;;;;;;5033117;28;20045;-72
2022/10/11 03:57:47;;;;;;;0.50;0.50;;;6.20;99.90;;;;;;5032907;28;20423;-71
2022/10/11 04:00:12;;;;;;;0.43;0.43;;;6.20;99.90;;;;;;5032934;28;20477;-72
2022/10/11 04:02:38;;;;;;;0.50;0.50;;;6.20;99.90;;;;;;5033226;28;20141;-72
2022/10/11 04:05:05;;;;;;;0.40;0.40;;;6.20;99.90;;;;;;5032622;28;20061;-72
2022/10/11 04:07:31;;;;;;;0.40;0.40;;;6.20;99.90;;;;;;5032643;28;20229;-72
2022/10/11 04:09:57;;;;;;;0.47;0.47;;;6.20;99.90;;;;;;5031133;28;20037;-73
2022/10/11 04:12:23;;;;;;;0.88;0.88;;;6.20;99.90;;;;;;5032026;28;20057;-71
2022/10/11 04:14:49;;;;;;;0.60;0.60;;;;;;;;;;5032243;28;20029;-72
2022/10/11 04:17:15;;;;;;;0.80;0.80;;;6.20;99.90;;;;;;5032535;28;20029;-72
2022/10/11 04:19:41;;;;;;;0.40;0.40;;;;;;;;;;5032937;28;20284;-72
2022/10/11 04:22:06;;;;;;;0.87;0.87;;;6.10;99.90;;;;;;5032353;28;20053;-72
2022/10/11 04:24:32;;;;;;;0.50;0.50;;;5.80;99.90;;;;;;5030763;28;20025;-72
2022/10/11 04:26:58;;;;;;;0.50;0.50;;;5.70;99.90;;;;;;5034602;28;20113;-72
2022/10/11 04:29:24;;;;;;;1.03;1.03;;;;;;;;;;5030977;28;20025;-72
2022/10/11 04:31:50;;;;;;;0.70;0.70;;;5.60;99.90;;;;;;5032696;28;20060;-71
2022/10/11 04:34:16;;;;;;;0.40;0.40;;;5.60;99.90;;;;;;5031991;28;20034;-72
2022/10/11 04:36:42;;;;;;;0.47;0.47;;;5.90;99.90;;;;;;5046315;28;20059;-72
2022/10/11 04:39:08;;;;;;;0.60;0.60;;;6.00;99.90;;;;;;5051932;28;20025;-72
2022/10/11 04:41:34;;;;;;;0.40;0.40;;;6.50;99.90;;;;;;5051006;28;20392;-72
2022/10/11 04:44:00;;;;;;;0.80;0.80;;;;;;;;;;5051687;28;20060;-72
2022/10/11 04:46:29;;;;;;;1.40;1.20;;;6.70;99.90;;;;;;5050530;28;20033;-72
2022/10/11 04:48:54;;;;;;;0.52;0.52;;;5.90;99.90;;;;;;5050475;28;20029;-73
2022/10/11 04:51:21;;;;;;;0.40;0.40;;;5.90;99.90;;;;;;5050496;28;20085;-72
2022/10/11 04:53:47;;;;;;;0.40;0.40;;;6.10;99.90;;;;;;5051085;28;20033;-73
2022/10/11 04:56:15;;;;;;;1.05;1.05;;;;;;;;;;5051877;28;20067;-73
2022/10/11 04:58:41;;;;;;;1.55;1.17;;;6.30;99.90;;;;;;5051675;28;20098;-72
2022/10/11 05:01:07;;;;;;;5.30;1.90;;;;;;;;;;5051615;28;20428;-72
2022/10/11 05:03:33;;;;;;;0.40;0.40;;;;;;;;;;5051394;28;20073;-73
2022/10/11 05:05:59;;;;;;;0.47;0.47;;;6.40;99.90;;;;;;5051458;28;20108;-72
2022/10/11 05:08:25;;;;;;;2.00;1.90;;;;;;;;;;5051357;28;20420;-73
2022/10/11 05:11:02;;;;;;;1.70;1.23;;;6.30;99.90;;;;;;5050641;28;20099;-72
2022/10/11 05:13:29;;;;;;;0.60;0.60;;;6.30;99.90;;;;;;5051303;28;20028;-71
2022/10/11 05:15:55;;;;;;;0.93;0.93;;;6.70;99.90;;;;;;5051201;28;20464;-72
2022/10/11 05:18:22;;;;;;;0.60;0.60;;;;;;;;;;5051079;28;20032;-72
2022/10/11 05:20:47;;;;;;;0.63;0.63;;;6.10;99.90;;;;;;5051382;28;20052;-73
2022/10/11 05:23:14;;;;;;;0.90;0.90;;;7.30;99.90;;;;;;5051065;28;20075;-73
2022/10/11 05:25:40;;;;;;;0.82;0.82;;;;;;;;;;5048404;28;20041;-73
2022/10/11 05:28:06;;;;;;;1.23;1.02;;;;;;;;;;5031667;28;20499;-73
2022/10/11 05:30:32;;;;;;;0.97;0.97;;;7.10;99.90;;;;;;5031213;28;20069;-73
2022/10/11 05:32:58;;;;;;;0.50;0.50;;;;;;;;;;5030861;28;20618;-72
2022/10/11 05:35:24;;;;;;;0.40;0.40;;;;;;;;;;5030871;28;20033;-73
2022/10/11 05:37:50;;;;;;;0.52;0.52;;;;;;;;;;5034273;28;20080;-73
2022/10/11 05:40:16;;;;;;;0.40;0.40;;;;;;;;;;5039675;28;20064;-72
2022/10/11 05:42:42;;;;;;;0.80;0.80;;;;;;;;;;5031088;28;20384;-73
2022/10/11 05:45:08;;;;;;;0.40;0.40;;;6.90;99.90;;;;;;5046823;28;20053;-72
2022/10/11 05:47:34;;;;;;;0.40;0.40;;;;;;;;;;5051068;28;20040;-73
2022/10/11 05:50:00;;;;;;;0.77;0.77;;;;;;;;;;5049137;28;20039;-72
2022/10/11 05:52:25;;;;;;;0.40;0.40;;;8.50;99.90;;;;;;5050637;28;20025;-71
2022/10/11 05:54:51;;;;;;;0.70;0.70;;;7.90;99.90;;;;;;5049137;28;20036;-73
2022/10/11 05:57:16;;;;;;;0.73;0.73;;;8.70;99.90;;;;;;5050764;28;20032;-72
2022/10/11 05:59:42;;;;;;;0.40;0.40;;;8.60;99.90;;;;;;5050764;28;20029;-73
2022/10/11 06:02:12;;;;;;;0.43;0.43;;;8.50;99.90;;;;;;5049625;28;20523;-71
2022/10/11 06:04:38;;;;;;;0.50;0.50;;;9.40;99.90;;;;;;5050062;28;20056;-72
2022/10/11 06:07:04;;;;;;;0.43;0.43;;;;;;;;;;5050109;28;20464;-73
2022/10/11 06:09:30;;;;;;;0.40;0.40;;;9.40;99.90;;;;;;5050030;28;20043;-72
2022/10/11 06:11:56;;;;;;;0.40;0.40;;;8.80;99.90;;;;;;5048760;28;20278;-73
2022/10/11 06:14:22;;;;;;;0.55;0.55;;;;;;;;;;5048628;28;20029;-73
2022/10/11 06:16:48;;;;;;;0.40;0.40;;;9.70;99.90;;;;;;5050362;28;20037;-73
2022/10/11 06:19:14;;;;;;;1.70;1.60;;;9.50;99.90;;;;;;5049048;28;20040;-72
2022/10/11 06:21:39;;;;;;;0.40;0.40;;;10.20;99.90;;;;;;5050028;28;20037;-72
2022/10/11 06:24:05;;;;;;;1.33;1.23;;;10.10;99.90;;;;;;5049921;28;20024;-72
2022/10/11 06:26:31;;;;;;;0.40;0.40;;;;;;;;;;5039940;28;20116;-72
2022/10/11 06:28:57;;;;;;;0.40;0.40;;;10.10;99.90;;;;;;5010240;28;20080;-73
2022/10/11 06:31:23;;;;;;;0.40;0.40;;;10.70;99.90;;;;;;5010619;28;20034;-72
2022/10/11 06:33:49;;;;;;;0.43;0.43;;;10.70;99.90;;;;;;5010097;28;20421;-72
2022/10/11 06:36:16;;;;;;;0.40;0.40;;;10.90;99.90;;;;;;5029865;28;20037;-73
2022/10/11 06:38:42;;;;;;;0.55;0.55;;;11.10;99.90;;;;;;5030072;28;20038;-74
2022/10/11 06:41:16;;;;;;;0.45;0.45;;;11.10;99.90;;;;;;5030144;28;20052;-74
2022/10/11 06:43:42;;;;;;;1.75;0.75;;;11.10;99.90;;;;;;5032378;28;20112;-73
2022/10/11 06:46:27;;;;;;;1.02;0.73;;;11.80;99.90;;;;;;5034752;28;20049;-73
2022/10/11 06:48:55;;;;;;;0.88;0.88;;;;;;;;;;5028430;28;20435;-73
2022/10/11 06:51:22;;;;;;;0.40;0.40;;;11.70;99.90;;;;;;5033011;28;20436;-73
2022/10/11 06:53:56;;;;;;;0.40;0.40;;;;;;;;;;5049517;28;20048;-74
2022/10/11 06:56:22;;;;;;;0.82;0.82;;;12.10;99.90;;;;;;5049851;28;20097;-73
2022/10/11 06:58:49;;;;;;;0.40;0.40;;;11.80;99.90;;;;;;5048264;28;20444;-73
2022/10/11 07:01:17;;;;;;;0.32;0.32;;;11.50;99.90;;;;;;5049779;28;20135;-72
2022/10/11 07:03:44;;;;;;;0.32;0.32;;;12.30;99.90;;;;;;5048173;28;20033;-72
2022/10/11 07:06:11;;;;;;;;;;;11.90;99.90;;;;;;5048600;28;20121;-74
2022/10/11 07:08:38;;;;;;;0.60;0.60;;;11.70;99.90;;;;;;5047298;28;19956;-72
2022/10/11 07:11:06;;;;;;;0.40;0.40;;;11.40;99.90;;;;;;5048209;28;20086;-73
2022/10/11 07:13:32;;;;;;;0.50;0.50;;;12.00;99.90;;;;;;5049473;28;20036;-72
2022/10/11 07:16:00;;;;;;;0.37;0.37;;;11.70;99.90;;;;;;5049434;28;20033;-73
2022/10/11 07:18:27;;;;;;;0.47;0.47;;;;;;;;;;5048005;28;20435;-73
2022/10/11 07:20:52;;;;;;;0.40;0.40;;;11.50;99.90;;;;;;5048174;28;20383;-73
2022/10/11 07:23:18;;;;;;;0.50;0.50;;;11.60;99.90;;;;;;5047925;28;20234;-73
2022/10/11 07:25:44;;;;;;;0.50;0.50;;;11.60;99.90;;;;;;5042889;28;20051;-73
2022/10/11 07:28:10;;;;;;;1.05;1.05;;;11.10;99.90;;;;;;5029309;28;20451;-73
2022/10/11 07:30:40;;;;;;;1.07;1.07;;;12.10;99.90;;;;;;5029640;28;20036;-73
2022/10/11 07:33:06;;;;;;;1.05;1.02;;;;;;;;;;5029282;28;20033;-72
2022/10/11 07:35:35;;;;;;;0.40;0.40;;;11.80;99.90;;;;;;5027742;28;20034;-72
2022/10/11 07:38:01;;;;;;;0.65;0.65;;;11.80;99.90;;;;;;5029139;28;20100;-73
2022/10/11 07:40:27;;;;;;;0.40;0.40;;;11.80;99.90;;;;;;5027789;28;20044;-72
2022/10/11 07:42:53;;;;;;;0.40;0.40;;;12.00;99.90;;;;;;5036486;28;20037;-72
2022/10/11 07:45:18;;;;;;;0.50;0.50;;;11.60;99.90;;;;;;5048937;28;20045;-73
2022/10/11 07:47:45;;;;;;;0.47;0.47;;;;;;;;;;5049286;28;20366;-73
2022/10/11 07:50:12;;;;;;;0.55;0.55;;;12.50;99.90;;;;;;5051321;28;20468;-73
2022/10/11 07:52:37;;;;;;;0.85;0.85;;;11.80;99.90;;;;;;5052781;28;20037;-72
2022/10/11 07:55:04;;;;;;;1.07;1.07;;;12.30;99.90;;;;;;5048522;28;20295;-72
2022/10/11 07:57:30;;;;;;;3.10;1.02;;;;;;;;;;5043389;28;20150;-72
2022/10/11 07:59:56;;;;;;;0.40;0.40;;;;;;;;;;5040508;28;20041;-73
2022/10/11 08:02:21;;;;;;;4.20;2.50;;;12.10;99.90;;;;;;5052840;28;20025;-72
2022/10/11 08:04:47;;;;;;;1.00;1.00;;;12.10;99.90;;;;;;5052318;28;20041;-72
2022/10/11 08:07:12;;;;;;;0.63;0.63;;;12.40;99.90;;;;;;5052408;28;20028;-73
2022/10/11 08:09:38;;;;;;;1.23;1.23;;;12.80;99.90;;;;;;5052172;28;20427;-72
2022/10/11 08:12:04;;;;;;;0.70;0.70;;;;;;;;;;5052250;28;20047;-73
2022/10/11 08:14:30;;;;;;;1.20;1.00;;;;;;;;;;5050729;28;20025;-74
2022/10/11 08:16:56;;;;;;;0.40;0.40;;;;;;;;;;5051575;28;20111;-73
2022/10/11 08:19:21;;;;;;;0.40;0.40;;;13.70;99.90;;;;;;5051995;28;20031;-73
2022/10/11 08:21:47;;;;;;;0.77;0.77;;;;;;;;;;5052474;28;20041;-73
2022/10/11 08:24:13;;;;;;;0.40;0.40;;;;;;;;;;5050861;28;20075;-73
2022/10/11 08:26:40;;;;;;;0.40;0.40;;;14.30;99.90;;;;;;5023359;28;20042;-72
2022/10/11 08:29:05;;;;;;;0.40;0.40;;;14.70;99.90;;;;;;5011219;28;20036;-73
2022/10/11 08:31:33;;;;;;;0.40;0.40;;;14.80;99.90;;;;;;5011270;28;20457;-73
2022/10/11 08:33:59;;;;;;;0.30;0.30;;;;;;;;;;5021748;28;20372;-73
2022/10/11 08:36:25;;;;;;;0.88;0.55;;;15.00;99.90;;;;;;5032306;28;20091;-72
2022/10/11 08:38:51;;;;;;;0.70;0.70;;;;;;;;;;5030700;28;20419;-72
2022/10/11 08:41:35;;;;;;;0.40;0.40;;;15.40;99.90;;;;;;5031989;28;20041;-72
2022/10/11 08:44:17;;;;;;;0.40;0.40;;;;;;;;;;5031582;28;20038;-71
2022/10/11 08:46:47;;;;;;;0.50;0.50;;;16.10;99.90;;;;;;5032466;28;20091;-72
2022/10/11 08:49:14;;;;;;;0.38;0.38;;;16.00;99.90;;;;;;5031774;28;20060;-72
2022/10/11 08:51:49;;;;;;;0.35;0.35;;;16.10;99.90;;;;;;5032679;28;20591;-72
2022/10/11 08:54:41;;;;;;;0.50;0.50;;;16.20;99.90;;;;;;5031608;28;20116;-72
2022/10/11 08:57:13;;;;;;;0.40;0.40;;;16.10;99.90;;;;;;5030352;28;20060;-72
2022/10/11 08:59:50;;;;;;;0.30;0.30;;;16.10;99.90;;;;;;5031439;28;20025;-73
2022/10/11 09:02:31;;;;;;;0.40;0.40;;;16.20;99.90;;;;;;5031625;28;20114;-71
2022/10/11 09:04:58;;;;;;;0.47;0.47;;;16.10;99.90;;;;;;5031403;28;21988;-72
2022/10/11 09:07:39;;;;;;;0.60;0.60;;;16.00;99.90;;;;;;5041089;28;20029;-72
2022/10/11 09:10:31;;;;;;;1.63;1.17;;;15.90;99.90;;;;;;5049839;28;20062;-73
2022/10/11 09:13:02;;;;;;;0.32;0.32;;;16.10;99.90;;;;;;5051285;28;20025;-73
2022/10/11 09:15:40;;;;;;;0.50;0.50;;;16.20;99.90;;;;;;5050883;28;20526;-73
2022/10/11 09:18:18;;;;;;;0.45;0.45;;;16.30;99.90;;;;;;5051075;28;20053;-73
2022/10/11 09:21:10;;;;;;;0.50;0.50;;;16.20;99.90;;;;;;5049722;28;20171;-73
2022/10/11 09:24:05;;;;;;;0.30;0.30;;;15.90;99.90;;;;;;5050726;28;20037;-73
2022/10/11 09:26:38;;;;;;;0.90;0.88;;;15.90;99.90;;;;;;5024733;28;20438;-74
2022/10/11 09:29:28;;;;;;;0.47;0.47;;;15.90;99.90;;;;;;5031159;28;20158;-73
2022/10/11 09:31:55;;;;;;;0.82;0.82;;;15.60;99.90;;;;;;5029914;28;20400;-73
2022/10/11 09:34:25;;;;;;;0.82;0.82;;;15.20;99.90;;;;;;5030686;28;20423;-73
2022/10/11 09:37:36;;;;;;;1.05;1.05;;;15.20;99.90;;;;;;5031302;28;20025;-72
2022/10/11 09:40:10;;;;;;;0.98;0.95;;;15.00;99.90;;;;;;5029201;28;20037;-72
2022/10/11 09:42:35;;;;;;;2.10;1.95;;;14.80;99.90;;;;;;5031359;28;20087;-71
2022/10/11 09:45:04;;;;;;;1.30;1.23;;;14.80;99.90;;;;;;5030517;28;20045;-73
2022/10/11 09:47:31;;;;;;;0.90;0.88;;;14.90;99.90;;;;;;5029197;28;20029;-73
2022/10/11 09:50:03;;;;;;;2.15;1.30;;;15.10;99.90;;;;;;5030874;28;20037;-73
2022/10/11 09:52:29;;;;;;;0.82;0.82;;;15.00;99.90;;;;;;5030639;28;20022;-72
2022/10/11 09:55:00;;;;;;;0.47;0.47;;;15.20;99.90;;;;;;5030593;28;20036;-72
2022/10/11 09:57:38;;;;;;;0.70;0.70;;;15.30;99.90;;;;;;5029527;28;20062;-72
2022/10/11 10:00:22;;;;;;;2.08;1.40;;;15.40;99.90;;;;;;5030000;28;20026;-73
2022/10/11 10:02:50;;;;;;;0.50;0.50;;;15.50;99.90;;;;;;5029416;28;20076;-72
2022/10/11 10:05:19;;;;;;;1.80;1.52;;;15.50;99.90;;;;;;5030352;28;20418;-72
2022/10/11 10:08:25;;;;;;;3.97;0.90;;;15.60;99.90;;;;;;5030304;28;20117;-72
2022/10/11 10:11:01;;;;;;;1.02;1.02;;;15.70;99.90;;;;;;5029515;28;20049;-72
2022/10/11 10:13:36;;;;;;;0.65;0.65;;;15.60;99.90;;;;;;5030265;28;20469;-73
2022/10/11 10:16:02;;;;;;;0.85;0.85;;;16.30;99.90;;;;;;5029425;28;20037;-73
2022/10/11 10:18:51;;;;;;;0.45;0.45;;;16.00;99.80;;;;;;5038890;28;20040;-73
2022/10/11 10:21:24;;;;;;;0.60;0.60;;;16.20;99.80;;;;;;5015304;28;20396;-73
2022/10/11 10:23:54;;;;;;;1.52;1.10;;;16.60;99.10;;;;;;5008924;28;20393;-72
2022/10/11 10:26:24;;;;;;;0.75;0.75;;;16.70;98.70;;;;;;5022051;28;20340;-72
2022/10/11 10:29:08;;;;;;;6.13;1.55;;;16.90;98.70;;;;;;5029965;28;20397;-72
2022/10/11 10:31:49;;;;;;;0.60;0.60;;;17.10;98.00;;;;;;5028664;28;20037;-73
2022/10/11 10:34:35;;;;;;;3.08;1.92;;;17.00;98.00;;;;;;5028873;28;20025;-73
2022/10/11 10:37:07;;;;;;;1.05;0.95;;;16.80;98.20;;;;;;5028482;28;20052;-73
2022/10/11 10:39:55;;;;;;;2.63;2.42;;;16.80;98.40;;;;;;5021014;28;20034;-68
2022/10/11 10:42:21;;;;;;;1.20;1.13;;;17.00;98.10;;;;;;5019424;28;20037;-69
2022/10/11 10:44:52;;;;;;;1.70;1.60;;;17.00;97.70;;;;;;5025547;28;20049;-68
2022/10/11 10:47:32;;;;;;;1.50;1.40;;;17.10;97.30;;;;;;5020270;28;20101;-68
2022/10/11 10:50:38;;;;;;;3.47;1.90;;;17.10;97.50;;;;;;5021785;28;20026;-69
2022/10/11 10:53:44;;;;;;;1.70;1.17;;;17.20;97.20;;;;;;5020939;28;20164;-68
2022/10/11 10:56:17;;;;;;;0.70;0.70;;;17.40;96.90;;;;;;5021276;28;20044;-68
2022/10/11 10:59:31;;;;;;;0.73;0.73;;;17.60;96.50;;;;;;5027106;28;20033;-69
2022/10/11 11:02:15;;;;;;;7.22;2.00;;;17.70;96.40;;;;;;5023298;28;20416;-69
2022/10/11 11:04:49;;;;;;;5.10;2.70;;;17.80;95.60;;;;;;5044695;28;20162;-68
2022/10/11 11:07:47;;;;;;;0.80;0.80;;;17.80;95.70;;;;;;5029603;28;20029;-69
2022/10/11 11:10:26;;;;;;;;;;;17.70;95.90;;;;;;5021360;28;20045;-68
2022/10/11 11:13:10;;;;;;;2.55;1.33;;;17.60;95.60;;;;;;5025014;28;19920;-68
2022/10/11 11:15:47;;;;;;;1.92;1.75;;;17.60;95.70;;;;;;5031362;28;20388;-68
2022/10/11 11:18:36;;;;;;;2.92;2.10;;;17.60;95.70;;;;;;5021395;28;20075;-68
2022/10/11 11:21:23;;;;;;;0.98;0.93;;;17.50;95.70;;;;;;5028670;28;20056;-68
2022/10/11 11:24:06;;;;;;;1.00;0.97;;;17.30;96.30;;;;;;5026252;28;20036;-67
2022/10/11 11:26:48;;;;;;;3.30;1.77;;;17.00;96.20;;;;;;5014890;28;20120;-68
2022/10/11 11:29:25;;;;;;;1.40;1.30;;;16.90;96.30;;;;;;5024306;28;20025;-68
2022/10/11 11:32:01;;;;;;;;;;;16.70;96.30;;;;;;5028867;28;20476;-68
2022/10/11 11:34:42;;;;;;;0.70;0.70;;;16.70;96.30;;;;;;5034875;28;19919;-68
2022/10/11 11:37:26;;;;;;;2.45;2.28;;;16.50;96.10;;;;;;5019638;28;20413;-68
2022/10/11 11:40:00;;;;;;;1.75;1.65;;;16.20;96.80;;;;;;5038593;28;20025;-68
2022/10/11 11:42:44;;;;;;;2.53;2.28;;;15.80;97.00;;;;;;5013658;28;20041;-68
2022/10/11 11:45:22;;;;;;;4.03;1.20;;;15.60;97.10;;;;;;5025445;28;20053;-68
2022/10/11 11:48:05;;;;;;;1.70;1.55;;;15.40;97.30;;;;;;5031394;28;20372;-68
2022/10/11 11:50:40;;;;;;;1.20;1.13;;;15.20;97.60;;;;;;5033437;28;20029;-68
2022/10/11 11:53:20;;;;;;;2.00;1.20;;;15.10;98.00;;;;;;5025005;28;20093;-62
2022/10/11 11:55:56;;;;;;;0.82;0.82;;;14.90;98.00;;;;;;5027547;28;20037;-63
2022/10/11 11:58:43;;;;;;;0.80;0.75;;;14.70;98.40;;;;;;5030584;28;20025;-62
2022/10/11 12:01:26;;;;;;;3.00;2.15;;;14.60;98.90;;;;;;5029715;28;20123;-65
2022/10/11 12:03:56;;;;;;;1.15;1.10;;;14.50;99.30;;;;;;5022182;28;20037;-63
2022/10/11 12:06:27;;;;;;;1.67;1.58;;;14.50;99.40;;;;;;5019970;28;20056;-63
2022/10/11 12:09:17;;;;;;;2.15;1.80;;;14.30;99.70;;;;;;5027905;28;20030;-63
2022/10/11 12:11:57;;;;;;;1.00;1.00;;;14.40;99.70;;;;;;5032094;28;20026;-63
2022/10/11 12:14:26;;;;;;;1.13;1.02;;;14.40;99.80;;;;;;5023031;28;20479;-64
2022/10/11 12:17:24;;;;;;;1.45;1.35;;;14.40;99.90;;;;;;5035434;28;20396;-63
2022/10/11 12:20:19;;;;;;;0.93;0.93;;;14.30;99.70;;;;;;5031938;28;20042;-64
2022/10/11 12:22:48;;;;;;;1.05;1.02;;;14.40;99.90;;;;;;5025026;28;20035;-64
2022/10/11 12:25:14;;;;;;;1.75;1.65;;;14.50;99.90;;;;;;5020207;28;20125;-63
2022/10/11 12:27:47;;;;;;;1.00;1.00;;;14.50;99.90;;;;;;5025079;28;20159;-65
2022/10/11 12:30:57;;;;;;;0.55;0.55;;;14.60;99.90;;;;;;5026375;28;20376;-64
2022/10/11 12:33:44;;;;;;;0.77;0.77;;;14.70;99.90;;;;;;5022050;28;20057;-63
2022/10/11 12:36:28;;;;;;;5.55;2.05;;;14.60;99.50;;;;;;5049351;28;20045;-63
2022/10/11 12:39:19;;;;;;;4.93;1.10;;;14.60;99.20;;;;;;5024263;28;20467;-65
2022/10/11 12:41:52;;;;;;;0.85;0.73;;;14.60;99.90;;;;;;5025666;28;20040;-65
2022/10/11 12:44:17;;;;;;;1.30;1.08;;;14.60;99.90;;;;;;5028571;28;20144;-64
2022/10/11 12:46:49;;;;;;;2.47;1.37;;;14.60;99.90;;;;;;5025127;28;20034;-64
2022/10/11 12:49:36;;;;;;;1.55;1.45;;;14.50;99.50;;;;;;5029201;28;20025;-63
2022/10/11 12:52:17;;;;;;;1.67;0.95;;;14.60;98.60;;;;;;5025986;28;20037;-64
2022/10/11 12:55:09;;;;;;;3.03;2.72;;;14.60;99.30;;;;;;5029830;28;20477;-66
2022/10/11 12:58:04;;;;;;;1.58;1.17;;;14.60;99.50;;;;;;5025924;28;20025;-65
2022/10/11 13:00:39;;;;;;;1.08;1.08;;;14.70;98.80;;;;;;5023339;28;20137;-65
2022/10/11 13:03:22;;;;;;;15.70;1.25;;;14.60;98.50;;;;;;5032208;28;20103;-66
2022/10/11 13:05:48;;;;;;;1.95;1.80;;;14.60;99.40;;;;;;5039442;28;20485;-65
2022/10/11 13:08:28;;;;;;;0.50;0.50;;;14.50;99.20;;;;;;5033699;28;20032;-65
2022/10/11 13:10:58;;;;;;;2.92;1.00;;;14.60;99.70;;;;;;5052308;28;20032;-65
2022/10/11 13:13:30;;;;;;;0.60;0.60;;;14.50;99.90;;;;;;5025587;28;20097;-66
2022/10/11 13:16:02;;;;;;;0.73;0.73;;;14.50;99.60;;;;;;5033064;28;20061;-66
2022/10/11 13:18:27;;;;;;;2.53;1.15;;;14.50;99.50;;;;;;5024646;28;20033;-64
2022/10/11 13:20:53;;;;;;;1.37;1.27;;;14.50;99.90;;;;;;5024524;28;20041;-64
2022/10/11 13:23:27;;;;;;;0.70;0.70;;;14.50;99.90;;;;;;5020908;28;20075;-63
2022/10/11 13:25:54;;;;;;;0.40;0.40;;;14.50;99.90;;;;;;5019655;28;20080;-65
2022/10/11 13:28:21;;;;;;;0.95;0.93;;;14.60;99.90;;;;;;5025488;28;20108;-64
2022/10/11 13:30:54;;;;;;;0.82;0.82;;;14.60;99.90;;;;;;5026175;28;20493;-64
2022/10/11 13:33:31;;;;;;;4.63;1.42;;;14.50;99.90;;;;;;5025055;28;20030;-64
2022/10/11 13:35:58;;;;;;;1.65;1.48;;;14.50;99.70;;;;;;5023906;28;20571;-63